createdAt,value
2019-05-30T00:00:55.843Z,7.97
2019-05-30T00:03:27.884Z,10.63
2019-05-30T00:06:00.528Z,13.47
2019-05-30T00:08:32.648Z,8.83
2019-05-30T00:11:04.867Z,9.58
2019-05-30T00:13:36.889Z,11.80
2019-05-30T00:16:09.461Z,9.47
2019-05-30T00:18:41.579Z,10.77
2019-05-30T00:21:13.610Z,9.53
2019-05-30T00:23:45.514Z,7.33
2019-05-30T00:26:17.535Z,11.78
2019-05-30T00:28:49.588Z,9.03
2019-05-30T00:31:21.601Z,12.13
2019-05-30T00:33:53.643Z,10.27
2019-05-30T00:36:25.986Z,13.73
2019-05-30T00:38:57.972Z,11.40
2019-05-30T00:41:29.924Z,8.27
2019-05-30T00:44:02.158Z,8.50
2019-05-30T00:46:34.360Z,9.43
2019-05-30T00:49:06.687Z,8.00
2019-05-30T00:51:38.681Z,8.97
2019-05-30T00:54:10.661Z,10.63
2019-05-30T00:56:42.457Z,12.53
2019-05-30T00:59:14.355Z,8.07
2019-05-30T01:01:46.135Z,9.80
2019-05-30T01:04:18.365Z,8.80
2019-05-30T01:06:50.154Z,4.90
2019-05-30T01:09:22.061Z,11.07
2019-05-30T01:11:54.051Z,9.20
2019-05-30T01:14:25.961Z,8.73
2019-05-30T01:16:59.047Z,9.63
2019-05-30T01:19:31.050Z,8.07
2019-05-30T01:22:05.400Z,9.80
2019-05-30T01:24:37.434Z,8.63
2019-05-30T01:27:09.370Z,11.23
2019-05-30T01:29:41.349Z,10.10
2019-05-30T01:32:29.098Z,9.53
2019-05-30T01:35:02.074Z,10.10
2019-05-30T01:37:37.296Z,10.87
2019-05-30T01:40:10.614Z,9.47
2019-05-30T01:42:42.554Z,12.07
2019-05-30T01:45:14.949Z,12.27
2019-05-30T01:47:46.730Z,8.30
2019-05-30T01:50:18.808Z,5.33
2019-05-30T01:52:50.769Z,6.90
2019-05-30T01:55:22.824Z,5.57
2019-05-30T01:57:54.834Z,14.73
2019-05-30T02:00:38.957Z,4.93
2019-05-30T02:03:11.057Z,8.63
2019-05-30T02:05:43.039Z,4.63
2019-05-30T02:08:14.980Z,6.40
2019-05-30T02:10:47.036Z,4.60
2019-05-30T02:13:19.003Z,7.17
2019-05-30T02:15:51.095Z,6.57
2019-05-30T02:18:23.065Z,5.13
2019-05-30T02:20:54.969Z,6.87
2019-05-30T02:23:27.076Z,6.70
2019-05-30T02:26:00.104Z,5.83
2019-05-30T02:28:32.251Z,7.83
2019-05-30T02:31:05.338Z,6.13
2019-05-30T02:33:37.737Z,5.37
2019-05-30T02:36:12.577Z,8.47
2019-05-30T02:38:44.874Z,6.03
2019-05-30T02:41:17.107Z,5.00
2019-05-30T02:43:49.211Z,3.33
2019-05-30T02:46:21.100Z,3.80
2019-05-30T02:48:58.992Z,4.93
2019-05-30T02:51:26.578Z,5.70
2019-05-30T02:53:58.530Z,12.17
2019-05-30T02:56:30.769Z,3.90
2019-05-30T02:59:03.870Z,7.10
2019-05-30T03:01:36.470Z,5.50
2019-05-30T03:04:10.237Z,5.63
2019-05-30T03:06:42.428Z,4.33
2019-05-30T03:09:14.410Z,6.47
2019-05-30T03:11:46.890Z,5.93
2019-05-30T03:14:19.949Z,5.70
2019-05-30T03:16:52.268Z,4.97
2019-05-30T03:19:24.231Z,3.97
2019-05-30T03:21:56.270Z,4.43
2019-05-30T03:24:28.195Z,5.73
2019-05-30T03:27:00.226Z,6.73
2019-05-30T03:29:32.213Z,9.93
2019-05-30T03:32:38.987Z,9.67
2019-05-30T03:34:37.848Z,3.87
2019-05-30T03:37:21.456Z,6.00
2019-05-30T03:39:43.483Z,10.93
2019-05-30T03:42:16.107Z,5.67
2019-05-30T03:44:48.216Z,10.47
2019-05-30T03:47:22.086Z,4.90
2019-05-30T03:49:56.232Z,5.77
2019-05-30T03:52:29.076Z,5.97
2019-05-30T03:55:01.282Z,6.73
2019-05-30T03:57:43.164Z,4.47
2019-05-30T04:00:37.367Z,3.77
2019-05-30T04:03:31.858Z,10.77
2019-05-30T04:06:10.143Z,6.53
2019-05-30T04:08:43.849Z,8.03
2019-05-30T04:11:29.633Z,6.13
2019-05-30T04:14:06.805Z,6.10
2019-05-30T04:16:38.596Z,6.53
2019-05-30T04:19:12.356Z,5.83
2019-05-30T04:21:43.996Z,8.47
2019-05-30T04:24:16.498Z,12.23
2019-05-30T04:26:48.507Z,14.60
2019-05-30T04:29:20.556Z,14.60
2019-05-30T04:31:52.426Z,13.67
2019-05-30T04:34:24.258Z,15.23
2019-05-30T04:36:56.132Z,15.47
2019-05-30T04:39:28.692Z,13.13
2019-05-30T04:42:00.576Z,14.10
2019-05-30T04:44:32.494Z,11.40
2019-05-30T04:47:23.024Z,12.20
2019-05-30T04:49:56.012Z,10.13
2019-05-30T04:52:27.978Z,13.13
2019-05-30T04:54:59.891Z,18.23
2019-05-30T04:57:31.865Z,18.17
2019-05-30T05:00:05.504Z,14.57
2019-05-30T05:02:37.872Z,19.67
2019-05-30T05:05:11.360Z,11.10
2019-05-30T05:07:43.390Z,13.50
2019-05-30T05:10:20.425Z,10.65
2019-05-30T05:12:52.845Z,7.73
2019-05-30T05:15:24.855Z,7.58
2019-05-30T05:17:56.789Z,5.95
2019-05-30T05:20:28.841Z,8.28
2019-05-30T05:23:01.048Z,6.80
2019-05-30T05:25:33.086Z,7.58
2019-05-30T05:28:05.071Z,9.85
2019-05-30T05:30:37.124Z,6.20
2019-05-30T05:33:09.006Z,11.70
2019-05-30T05:35:40.963Z,9.48
2019-05-30T05:38:12.949Z,14.53
2019-05-30T05:40:45.082Z,12.82
2019-05-30T05:43:18.593Z,10.50
2019-05-30T05:45:51.777Z,10.95
2019-05-30T05:48:24.724Z,18.00
2019-05-30T05:50:56.861Z,16.70
2019-05-30T05:53:29.087Z,18.37
2019-05-30T05:56:01.340Z,14.68
2019-05-30T05:58:33.396Z,8.40
2019-05-30T06:01:07.515Z,10.28
2019-05-30T06:03:39.955Z,4.47
2019-05-30T06:06:11.940Z,9.45
2019-05-30T06:08:44.791Z,10.93
2019-05-30T06:11:16.735Z,10.95
2019-05-30T06:13:48.976Z,13.03
2019-05-30T06:16:21.998Z,9.55
2019-05-30T06:18:54.011Z,8.48
2019-05-30T06:21:27.483Z,9.18
2019-05-30T06:23:59.462Z,7.75
2019-05-30T06:26:31.515Z,8.85
2019-05-30T06:29:03.761Z,10.85
2019-05-30T06:31:35.904Z,8.50
2019-05-30T06:34:07.907Z,6.45
2019-05-30T06:36:41.185Z,5.60
2019-05-30T06:39:13.133Z,6.87
2019-05-30T06:41:45.103Z,6.72
2019-05-30T06:44:16.882Z,8.50
2019-05-30T06:46:48.650Z,4.67
2019-05-30T06:49:20.678Z,4.75
2019-05-30T06:51:52.731Z,7.50
2019-05-30T06:54:25.906Z,2.52
2019-05-30T06:56:58.718Z,7.17
2019-05-30T06:59:31.727Z,7.12
2019-05-30T07:02:03.884Z,4.12
2019-05-30T07:04:50.870Z,9.73
2019-05-30T07:07:09.547Z,5.95
2019-05-30T07:09:41.576Z,9.03
2019-05-30T07:12:13.496Z,3.15
2019-05-30T07:14:45.497Z,7.37
2019-05-30T07:17:17.711Z,4.45
2019-05-30T07:19:49.721Z,10.82
2019-05-30T07:22:21.710Z,4.65
2019-05-30T07:24:53.599Z,4.72
2019-05-30T07:27:26.096Z,4.53
2019-05-30T07:29:58.175Z,2.35
2019-05-30T07:32:32.160Z,5.30
2019-05-30T07:35:07.688Z,4.03
2019-05-30T07:37:39.905Z,3.95
2019-05-30T07:40:12.603Z,3.58
2019-05-30T07:42:44.581Z,1.50
2019-05-30T07:45:17.505Z,2.42
2019-05-30T07:47:49.577Z,0.70
2019-05-30T07:50:21.951Z,4.28
2019-05-30T07:52:53.850Z,3.10
2019-05-30T07:55:26.850Z,14.68
2019-05-30T07:57:59.038Z,2.65
2019-05-30T08:00:33.486Z,3.08
2019-05-30T08:03:04.757Z,2.67
2019-05-30T08:05:36.717Z,4.33
2019-05-30T08:08:08.699Z,2.62
2019-05-30T08:10:40.594Z,1.62
2019-05-30T08:13:12.578Z,1.87
2019-05-30T08:15:44.467Z,3.02
2019-05-30T08:18:16.307Z,5.90
2019-05-30T08:20:48.239Z,1.85
2019-05-30T08:23:20.171Z,7.15
2019-05-30T08:25:52.185Z,3.42
2019-05-30T08:28:24.082Z,2.77
2019-05-30T08:30:56.972Z,4.92
2019-05-30T08:33:29.548Z,1.32
2019-05-30T08:36:05.481Z,4.47
2019-05-30T08:38:37.340Z,3.10
2019-05-30T08:41:09.497Z,3.80
2019-05-30T08:43:41.478Z,5.33
2019-05-30T08:46:15.808Z,6.28
2019-05-30T08:48:48.148Z,10.40
2019-05-30T08:51:20.024Z,3.85
2019-05-30T08:53:51.935Z,4.37
2019-05-30T08:56:23.737Z,3.85
2019-05-30T08:58:55.651Z,3.20
2019-05-30T09:01:27.632Z,3.80
2019-05-30T09:03:59.544Z,3.70
2019-05-30T09:06:32.503Z,2.45
2019-05-30T09:09:06.377Z,4.17
2019-05-30T09:11:39.290Z,4.95
2019-05-30T09:14:13.102Z,4.05
2019-05-30T09:16:46.499Z,5.78
2019-05-30T09:19:18.847Z,5.60
2019-05-30T09:21:51.985Z,6.53
2019-05-30T09:24:23.982Z,4.92
2019-05-30T09:26:57.084Z,6.10
2019-05-30T09:29:29.080Z,3.15
2019-05-30T09:32:01.014Z,1.57
2019-05-30T09:34:33.067Z,3.62
2019-05-30T09:37:04.998Z,5.12
2019-05-30T09:39:36.917Z,7.30
2019-05-30T09:42:08.845Z,3.92
2019-05-30T09:44:42.189Z,4.12
2019-05-30T09:47:14.219Z,2.60
2019-05-30T09:49:46.569Z,3.12
2019-05-30T09:52:18.595Z,4.20
2019-05-30T09:54:50.587Z,3.25
2019-05-30T09:57:22.451Z,3.83
2019-05-30T09:59:54.364Z,3.40
2019-05-30T10:02:26.539Z,2.33
2019-05-30T10:04:58.504Z,13.18
2019-05-30T10:07:30.552Z,4.28
2019-05-30T10:10:03.975Z,4.53
2019-05-30T10:12:35.983Z,2.60
2019-05-30T10:15:12.026Z,7.72
2019-05-30T10:17:44.669Z,4.28
2019-05-30T10:20:18.794Z,3.52
2019-05-30T10:22:52.432Z,2.65
2019-05-30T10:25:24.855Z,3.20
2019-05-30T10:27:57.787Z,3.22
2019-05-30T10:30:30.553Z,3.70
2019-05-30T10:33:02.378Z,2.85
2019-05-30T10:35:34.420Z,5.12
2019-05-30T10:38:06.708Z,5.42
2019-05-30T10:40:38.658Z,5.15
2019-05-30T10:43:18.908Z,4.90
2019-05-30T10:45:57.529Z,4.42
2019-05-30T10:48:30.357Z,12.05
2019-05-30T10:51:02.744Z,6.70
2019-05-30T10:53:37.402Z,5.12
2019-05-30T10:56:08.538Z,11.05
2019-05-30T10:58:40.612Z,2.60
2019-05-30T11:01:12.581Z,4.42
2019-05-30T11:03:44.592Z,3.40
2019-05-30T11:06:21.118Z,6.70
2019-05-30T11:08:54.879Z,2.65
2019-05-30T11:11:26.835Z,5.62
2019-05-30T11:13:58.785Z,4.17
2019-05-30T11:16:30.790Z,5.03
2019-05-30T11:19:07.309Z,2.77
2019-05-30T11:21:36.370Z,3.85
2019-05-30T11:24:08.412Z,4.28
2019-05-30T11:26:40.393Z,12.35
2019-05-30T11:29:12.360Z,9.48
2019-05-30T11:31:44.350Z,5.75
2019-05-30T11:34:16.283Z,5.00
2019-05-30T11:36:48.970Z,7.72
2019-05-30T11:39:21.025Z,5.35
2019-05-30T11:41:53.283Z,13.70
2019-05-30T11:44:25.316Z,4.03
2019-05-30T11:46:57.768Z,2.90
2019-05-30T11:49:29.769Z,3.90
2019-05-30T11:52:01.610Z,3.12
2019-05-30T11:54:34.346Z,14.45
2019-05-30T11:57:07.385Z,3.35
2019-05-30T11:59:39.268Z,12.98
2019-05-30T12:02:11.284Z,5.62
2019-05-30T12:04:43.407Z,8.23
2019-05-30T12:07:15.501Z,4.45
2019-05-30T12:09:48.470Z,2.50
2019-05-30T12:12:20.640Z,3.85
2019-05-30T12:14:53.314Z,3.20
2019-05-30T12:17:25.453Z,4.03
2019-05-30T12:19:59.594Z,3.15
2019-05-30T12:22:31.584Z,2.70
2019-05-30T12:25:07.330Z,7.37
2019-05-30T12:27:39.685Z,50.52
2019-05-30T12:30:12.219Z,3.42
2019-05-30T12:32:45.330Z,4.65
2019-05-30T12:35:21.307Z,5.95
2019-05-30T12:37:58.500Z,5.35
2019-05-30T12:40:27.535Z,11.53
2019-05-30T12:43:01.040Z,7.97
2019-05-30T12:45:33.264Z,3.92
2019-05-30T12:48:05.242Z,3.77
2019-05-30T12:50:37.115Z,5.58
2019-05-30T12:53:09.171Z,5.05
2019-05-30T12:55:41.061Z,3.33
2019-05-30T12:58:13.178Z,3.83
2019-05-30T13:00:45.504Z,3.58
2019-05-30T13:03:17.489Z,2.45
2019-05-30T13:05:49.431Z,3.85
2019-05-30T13:08:22.203Z,4.10
2019-05-30T13:10:55.523Z,5.20
2019-05-30T13:13:27.682Z,2.30
2019-05-30T13:16:01.064Z,5.10
2019-05-30T13:18:33.425Z,4.25
2019-05-30T13:21:06.328Z,5.35
2019-05-30T13:23:38.924Z,2.30
2019-05-30T13:26:10.850Z,2.80
2019-05-30T13:28:42.979Z,5.35
2019-05-30T13:31:15.869Z,2.10
2019-05-30T13:33:47.852Z,4.75
2019-05-30T13:36:19.661Z,2.30
2019-05-30T13:38:51.504Z,2.22
2019-05-30T13:41:23.531Z,2.33
2019-05-30T13:43:55.434Z,5.72
2019-05-30T13:46:27.340Z,2.40
2019-05-30T13:49:00.795Z,5.25
2019-05-30T13:51:32.855Z,2.55
2019-05-30T13:54:05.282Z,7.45
2019-05-30T13:56:37.273Z,17.23
2019-05-30T13:59:10.111Z,9.30
2019-05-30T14:01:42.197Z,7.08
2019-05-30T14:04:14.278Z,16.62
2019-05-30T14:06:46.226Z,1.80
2019-05-30T14:09:19.047Z,5.83
2019-05-30T14:11:50.982Z,1.40
2019-05-30T14:14:24.087Z,2.15
2019-05-30T14:16:56.222Z,5.87
2019-05-30T14:19:28.068Z,2.87
2019-05-30T14:22:01.057Z,1.55
2019-05-30T14:24:35.555Z,24.27
2019-05-30T14:27:07.650Z,4.28
2019-05-30T14:29:40.609Z,6.47
2019-05-30T14:32:12.632Z,4.25
2019-05-30T14:34:44.546Z,4.10
2019-05-30T14:37:16.333Z,5.58
2019-05-30T14:39:48.584Z,2.83
2019-05-30T14:42:20.537Z,12.18
2019-05-30T14:44:52.514Z,29.63
2019-05-30T14:47:24.691Z,4.58
2019-05-30T14:49:56.686Z,9.40
2019-05-30T14:52:28.949Z,11.45
2019-05-30T14:55:02.026Z,1.77
2019-05-30T14:57:34.128Z,3.30
2019-05-30T15:00:13.596Z,1.90
2019-05-30T15:02:46.153Z,4.53
2019-05-30T15:05:18.554Z,5.50
2019-05-30T15:07:50.589Z,2.60
2019-05-30T15:10:22.513Z,3.50
2019-05-30T15:12:55.371Z,9.03
2019-05-30T15:15:27.346Z,21.15
2019-05-30T15:17:59.169Z,2.65
2019-05-30T15:20:31.215Z,6.30
2019-05-30T15:23:03.165Z,2.77
2019-05-30T15:25:35.091Z,5.20
2019-05-30T15:28:07.967Z,3.80
2019-05-30T15:30:40.024Z,14.75
2019-05-30T15:33:12.658Z,2.70
2019-05-30T15:35:45.684Z,2.02
2019-05-30T15:38:17.578Z,11.83
2019-05-30T15:40:49.499Z,14.68
2019-05-30T15:43:21.455Z,11.25
2019-05-30T15:45:53.436Z,4.65
2019-05-30T15:48:25.312Z,7.37
2019-05-30T15:50:57.301Z,2.90
2019-05-30T15:53:29.406Z,7.30
2019-05-30T15:56:01.729Z,4.58
2019-05-30T15:58:33.761Z,3.90
2019-05-30T16:01:09.810Z,6.12
2019-05-30T16:03:43.689Z,5.03
2019-05-30T16:06:16.549Z,8.10
2019-05-30T16:08:48.518Z,3.58
2019-05-30T16:11:21.261Z,3.83
2019-05-30T16:13:53.304Z,3.85
2019-05-30T16:16:38.914Z,5.80
2019-05-30T16:19:14.789Z,3.05
2019-05-30T16:21:33.615Z,6.03
2019-05-30T16:24:07.050Z,5.22
2019-05-30T16:26:39.373Z,7.97
2019-05-30T16:29:11.342Z,10.45
2019-05-30T16:31:43.185Z,8.25
2019-05-30T16:34:16.104Z,6.20
2019-05-30T16:36:48.773Z,20.50
2019-05-30T16:39:20.647Z,20.97
2019-05-30T16:41:52.801Z,13.48
2019-05-30T16:44:24.767Z,28.00
2019-05-30T16:46:56.752Z,5.17
2019-05-30T16:49:29.051Z,16.67
2019-05-30T16:52:00.978Z,14.30
2019-05-30T16:54:33.021Z,8.18
2019-05-30T16:57:05.025Z,7.03
2019-05-30T16:59:36.917Z,3.30
2019-05-30T17:02:09.389Z,4.47
2019-05-30T17:04:41.365Z,3.52
2019-05-30T17:07:13.452Z,5.05
2019-05-30T17:09:45.403Z,12.75
2019-05-30T17:12:17.504Z,4.83
2019-05-30T17:14:49.564Z,25.72
2019-05-30T17:17:24.195Z,12.63
2019-05-30T17:19:56.817Z,6.28
2019-05-30T17:22:30.930Z,6.37
2019-05-30T17:25:03.831Z,4.33
2019-05-30T17:27:46.710Z,23.05
2019-05-30T17:30:21.616Z,8.18
2019-05-30T17:32:55.143Z,16.15
2019-05-30T17:35:46.281Z,6.62
2019-05-30T17:38:26.533Z,3.08
2019-05-30T17:40:58.535Z,4.20
2019-05-30T17:43:30.455Z,16.07
2019-05-30T17:46:02.439Z,20.60
2019-05-30T17:48:34.573Z,51.13
2019-05-30T17:51:06.610Z,23.45
2019-05-30T17:53:38.738Z,10.40
2019-05-30T17:56:10.796Z,5.83
2019-05-30T17:58:42.992Z,44.38
2019-05-30T18:01:14.736Z,6.25
2019-05-30T18:03:46.717Z,25.88
2019-05-30T18:06:20.377Z,13.55
2019-05-30T18:08:52.466Z,5.15
2019-05-30T18:11:24.947Z,12.33
2019-05-30T18:13:57.052Z,20.90
2019-05-30T18:16:29.290Z,9.40
2019-05-30T18:19:01.296Z,11.22
2019-05-30T18:21:33.251Z,9.13
2019-05-30T18:24:05.370Z,18.15
2019-05-30T18:26:37.317Z,27.93
2019-05-30T18:29:09.381Z,26.87
2019-05-30T18:31:41.271Z,25.77
2019-05-30T18:34:13.049Z,19.00
2019-05-30T18:36:46.325Z,12.55
2019-05-30T18:39:18.687Z,10.20
2019-05-30T18:41:50.654Z,23.77
2019-05-30T18:44:22.803Z,17.55
2019-05-30T18:46:54.673Z,9.13
2019-05-30T18:49:27.140Z,9.73
2019-05-30T18:51:59.234Z,13.28
2019-05-30T18:54:31.737Z,14.68
2019-05-30T18:57:04.913Z,11.40
2019-05-30T18:59:37.394Z,12.15
2019-05-30T19:02:10.555Z,14.05
2019-05-30T19:04:42.539Z,14.38
2019-05-30T19:07:14.505Z,15.98
2019-05-30T19:09:46.479Z,23.20
2019-05-30T19:12:19.436Z,15.65
2019-05-30T19:14:51.344Z,16.48
2019-05-30T19:17:23.239Z,15.58
2019-05-30T19:19:55.240Z,14.60
2019-05-30T19:22:28.365Z,13.90
2019-05-30T19:25:00.683Z,12.28
2019-05-30T19:27:36.401Z,14.45
2019-05-30T19:30:11.151Z,14.73
2019-05-30T19:32:42.962Z,10.05
2019-05-30T19:35:15.926Z,12.75
2019-05-30T19:38:05.044Z,16.50
2019-05-30T19:40:39.427Z,30.60
2019-05-30T19:43:12.874Z,30.30
2019-05-30T19:45:45.301Z,15.35
2019-05-30T19:48:17.302Z,15.15
2019-05-30T19:50:49.220Z,23.42
2019-05-30T19:53:21.106Z,16.75
2019-05-30T19:55:53.068Z,28.87
2019-05-30T19:58:24.966Z,20.43
2019-05-30T20:00:58.766Z,24.67
2019-05-30T20:03:38.519Z,14.63
2019-05-30T20:06:04.257Z,26.45
2019-05-30T20:08:51.356Z,22.05
2019-05-30T20:11:09.893Z,34.90
2019-05-30T20:13:41.946Z,31.87
2019-05-30T20:16:13.986Z,34.90
2019-05-30T20:18:45.892Z,19.65
2019-05-30T20:21:18.588Z,19.82
2019-05-30T20:23:56.622Z,18.52
2019-05-30T20:26:24.167Z,25.15
2019-05-30T20:28:56.051Z,37.05
2019-05-30T20:31:28.149Z,20.45
2019-05-30T20:34:00.190Z,21.33
2019-05-30T20:36:32.177Z,18.32
2019-05-30T20:39:04.887Z,18.48
2019-05-30T20:41:36.962Z,20.23
2019-05-30T20:44:08.856Z,20.97
2019-05-30T20:46:41.172Z,19.17
2019-05-30T20:49:13.149Z,20.48
2019-05-30T20:51:45.118Z,23.40
2019-05-30T20:54:17.015Z,19.87
2019-05-30T20:56:51.062Z,15.38
2019-05-30T20:59:22.597Z,17.73
2019-05-30T21:01:54.662Z,15.35
2019-05-30T21:04:26.814Z,14.65
2019-05-30T21:06:59.313Z,11.68
2019-05-30T21:09:31.885Z,14.05
2019-05-30T21:12:05.347Z,19.65
2019-05-30T21:14:37.421Z,14.68
2019-05-30T21:17:10.220Z,14.60
2019-05-30T21:19:42.174Z,13.18
2019-05-30T21:22:14.168Z,12.93
2019-05-30T21:24:46.944Z,18.05
2019-05-30T21:27:19.021Z,19.42
2019-05-30T21:29:51.049Z,22.58
2019-05-30T21:32:23.023Z,17.05
2019-05-30T21:34:54.978Z,28.47
2019-05-30T21:37:26.952Z,28.95
2019-05-30T21:39:58.981Z,36.05
2019-05-30T21:42:31.055Z,35.85
2019-05-30T21:45:02.866Z,26.97
2019-05-30T21:47:34.833Z,27.80
2019-05-30T21:50:07.903Z,18.70
2019-05-30T21:52:41.326Z,19.62
2019-05-30T21:55:13.698Z,19.17
2019-05-30T21:57:46.025Z,15.13
2019-05-30T22:01:05.805Z,14.87
2019-05-30T22:03:37.794Z,18.95
2019-05-30T22:06:09.591Z,20.97
2019-05-30T22:08:43.003Z,17.35
2019-05-30T22:11:15.143Z,15.13
2019-05-30T22:13:47.690Z,16.62
2019-05-30T22:16:19.622Z,16.95
2019-05-30T22:18:52.206Z,12.07
2019-05-30T22:21:24.405Z,12.15
2019-05-30T22:23:56.396Z,16.25
2019-05-30T22:26:28.495Z,14.93
2019-05-30T22:29:00.472Z,13.18
2019-05-30T22:31:32.490Z,15.15
2019-05-30T22:34:04.455Z,16.45
2019-05-30T22:36:36.335Z,16.02
2019-05-30T22:39:09.031Z,18.82
2019-05-30T22:41:41.042Z,14.40
2019-05-30T22:44:13.010Z,18.82
2019-05-30T22:46:46.115Z,19.17
2019-05-30T22:49:18.103Z,18.10
2019-05-30T22:51:51.109Z,20.52
2019-05-30T22:54:23.149Z,20.00
2019-05-30T22:56:55.755Z,13.93
2019-05-30T22:59:27.775Z,18.12
2019-05-30T23:01:59.735Z,15.13
2019-05-30T23:04:31.837Z,19.12
2019-05-30T23:07:04.035Z,20.72
2019-05-30T23:09:36.142Z,12.30
2019-05-30T23:12:08.047Z,15.80
2019-05-30T23:14:40.083Z,13.35
2019-05-30T23:17:11.978Z,13.30
2019-05-30T23:19:44.048Z,12.88
2019-05-30T23:22:16.042Z,12.63
2019-05-30T23:24:49.209Z,11.40
2019-05-30T23:27:21.106Z,11.83
2019-05-30T23:29:53.921Z,10.90
2019-05-30T23:32:25.764Z,10.58
2019-05-30T23:34:58.666Z,10.18
2019-05-30T23:37:30.522Z,9.73
2019-05-30T23:40:02.420Z,11.18
2019-05-30T23:42:34.364Z,10.25
2019-05-30T23:45:10.227Z,9.38
2019-05-30T23:47:42.039Z,8.65
2019-05-30T23:50:13.937Z,9.38
2019-05-30T23:52:45.821Z,10.35
2019-05-30T23:55:17.719Z,7.22
2019-05-30T23:57:50.357Z,12.00
